sensor_id;sensor_type;location;lat;lon;timestamp;P1;durP1;ratioP1;P2;durP2;ratioP2
22205;SDS011;11272;50.104;8.754;2023-05-10T00:00:07;3.07;;;1.40;;
22205;SDS011;11272;50.104;8.754;2023-05-10T00:02:38;1.50;;;1.40;;
22205;SDS011;11272;50.104;8.754;2023-05-10T00:05:04;1.73;;;1.33;;
22205;SDS011;11272;50.104;8.754;2023-05-10T00:07:30;1.83;;;1.10;;
22205;SDS011;11272;50.104;8.754;2023-05-10T00:09:56;1.90;;;1.10;;
22205;SDS011;11272;50.104;8.754;2023-05-10T00:12:21;1.53;;;1.03;;
22205;SDS011;11272;50.104;8.754;2023-05-10T00:14:47;1.00;;;0.80;;
22205;SDS011;11272;50.104;8.754;2023-05-10T00:17:13;3.23;;;1.00;;
22205;SDS011;11272;50.104;8.754;2023-05-10T00:19:38;1.40;;;1.10;;
22205;SDS011;11272;50.104;8.754;2023-05-10T00:22:04;1.00;;;0.83;;
22205;SDS011;11272;50.104;8.754;2023-05-10T00:24:29;1.00;;;0.90;;
22205;SDS011;11272;50.104;8.754;2023-05-10T00:26:55;1.67;;;0.70;;
22205;SDS011;11272;50.104;8.754;2023-05-10T00:29:20;0.90;;;0.70;;
22205;SDS011;11272;50.104;8.754;2023-05-10T00:31:46;1.00;;;0.70;;
22205;SDS011;11272;50.104;8.754;2023-05-10T00:34:12;1.03;;;0.80;;
22205;SDS011;11272;50.104;8.754;2023-05-10T00:36:37;1.07;;;0.63;;
22205;SDS011;11272;50.104;8.754;2023-05-10T00:39:03;1.10;;;0.90;;
22205;SDS011;11272;50.104;8.754;2023-05-10T00:41:29;3.87;;;0.80;;
22205;SDS011;11272;50.104;8.754;2023-05-10T00:43:57;0.70;;;0.57;;
22205;SDS011;11272;50.104;8.754;2023-05-10T00:46:23;0.97;;;0.60;;
22205;SDS011;11272;50.104;8.754;2023-05-10T00:48:50;0.97;;;0.63;;
22205;SDS011;11272;50.104;8.754;2023-05-10T00:51:17;0.80;;;0.50;;
22205;SDS011;11272;50.104;8.754;2023-05-10T00:53:46;0.50;;;0.50;;
22205;SDS011;11272;50.104;8.754;2023-05-10T00:56:12;0.53;;;0.43;;
22205;SDS011;11272;50.104;8.754;2023-05-10T00:58:39;1.10;;;0.40;;
22205;SDS011;11272;50.104;8.754;2023-05-10T01:01:05;0.60;;;0.50;;
22205;SDS011;11272;50.104;8.754;2023-05-10T01:03:31;0.40;;;0.40;;
22205;SDS011;11272;50.104;8.754;2023-05-10T01:05:57;0.50;;;0.43;;
22205;SDS011;11272;50.104;8.754;2023-05-10T01:08:23;0.60;;;0.50;;
22205;SDS011;11272;50.104;8.754;2023-05-10T01:10:50;2.53;;;0.50;;
22205;SDS011;11272;50.104;8.754;2023-05-10T01:16:00;0.63;;;0.50;;
22205;SDS011;11272;50.104;8.754;2023-05-10T01:18:39;0.43;;;0.43;;
22205;SDS011;11272;50.104;8.754;2023-05-10T01:23:56;0.60;;;0.60;;
22205;SDS011;11272;50.104;8.754;2023-05-10T01:37:27;0.30;;;0.30;;
22205;SDS011;11272;50.104;8.754;2023-05-10T01:40:00;0.40;;;0.40;;
22205;SDS011;11272;50.104;8.754;2023-05-10T01:42:40;0.40;;;0.40;;
22205;SDS011;11272;50.104;8.754;2023-05-10T01:45:18;1.83;;;0.40;;
22205;SDS011;11272;50.104;8.754;2023-05-10T01:48:22;0.70;;;0.60;;
22205;SDS011;11272;50.104;8.754;2023-05-10T01:50:48;0.50;;;0.50;;
22205;SDS011;11272;50.104;8.754;2023-05-10T01:53:17;0.40;;;0.30;;
22205;SDS011;11272;50.104;8.754;2023-05-10T01:58:24;0.40;;;0.40;;
22205;SDS011;11272;50.104;8.754;2023-05-10T02:01:02;0.50;;;0.50;;
22205;SDS011;11272;50.104;8.754;2023-05-10T02:03:29;0.50;;;0.50;;
22205;SDS011;11272;50.104;8.754;2023-05-10T02:05:57;0.77;;;0.47;;
22205;SDS011;11272;50.104;8.754;2023-05-10T02:08:24;0.33;;;0.33;;
22205;SDS011;11272;50.104;8.754;2023-05-10T02:10:51;0.40;;;0.40;;
22205;SDS011;11272;50.104;8.754;2023-05-10T02:13:18;0.50;;;0.50;;
22205;SDS011;11272;50.104;8.754;2023-05-10T02:15:46;0.37;;;0.37;;
22205;SDS011;11272;50.104;8.754;2023-05-10T02:18:14;0.47;;;0.47;;
22205;SDS011;11272;50.104;8.754;2023-05-10T02:20:41;1.30;;;0.40;;
22205;SDS011;11272;50.104;8.754;2023-05-10T02:23:08;0.73;;;0.53;;
22205;SDS011;11272;50.104;8.754;2023-05-10T02:25:36;0.50;;;0.50;;
22205;SDS011;11272;50.104;8.754;2023-05-10T02:28:04;0.43;;;0.40;;
22205;SDS011;11272;50.104;8.754;2023-05-10T02:30:32;0.50;;;0.50;;
22205;SDS011;11272;50.104;8.754;2023-05-10T02:32:59;0.50;;;0.50;;
22205;SDS011;11272;50.104;8.754;2023-05-10T02:35:27;0.50;;;0.50;;
22205;SDS011;11272;50.104;8.754;2023-05-10T02:37:54;0.60;;;0.50;;
22205;SDS011;11272;50.104;8.754;2023-05-10T02:40:21;0.43;;;0.40;;
22205;SDS011;11272;50.104;8.754;2023-05-10T02:42:50;0.40;;;0.40;;
22205;SDS011;11272;50.104;8.754;2023-05-10T02:45:20;0.43;;;0.33;;
22205;SDS011;11272;50.104;8.754;2023-05-10T02:47:49;1.37;;;0.67;;
22205;SDS011;11272;50.104;8.754;2023-05-10T02:50:15;0.50;;;0.50;;
22205;SDS011;11272;50.104;8.754;2023-05-10T02:52:46;0.50;;;0.50;;
22205;SDS011;11272;50.104;8.754;2023-05-10T02:55:15;0.60;;;0.50;;
22205;SDS011;11272;50.104;8.754;2023-05-10T03:00:39;0.50;;;0.50;;
22205;SDS011;11272;50.104;8.754;2023-05-10T03:03:05;1.17;;;0.43;;
22205;SDS011;11272;50.104;8.754;2023-05-10T03:05:31;2.07;;;0.60;;
22205;SDS011;11272;50.104;8.754;2023-05-10T03:08:00;1.00;;;0.57;;
22205;SDS011;11272;50.104;8.754;2023-05-10T03:10:29;0.50;;;0.50;;
22205;SDS011;11272;50.104;8.754;2023-05-10T03:15:48;1.17;;;0.60;;
22205;SDS011;11272;50.104;8.754;2023-05-10T03:18:29;0.50;;;0.50;;
22205;SDS011;11272;50.104;8.754;2023-05-10T03:21:07;0.53;;;0.50;;
22205;SDS011;11272;50.104;8.754;2023-05-10T03:23:43;0.67;;;0.53;;
22205;SDS011;11272;50.104;8.754;2023-05-10T03:26:26;0.50;;;0.50;;
22205;SDS011;11272;50.104;8.754;2023-05-10T03:29:10;0.90;;;0.70;;
22205;SDS011;11272;50.104;8.754;2023-05-10T03:31:42;0.53;;;0.53;;
22205;SDS011;11272;50.104;8.754;2023-05-10T03:34:10;0.57;;;0.50;;
22205;SDS011;11272;50.104;8.754;2023-05-10T03:36:36;0.40;;;0.40;;
22205;SDS011;11272;50.104;8.754;2023-05-10T03:39:04;0.60;;;0.53;;
22205;SDS011;11272;50.104;8.754;2023-05-10T03:41:54;2.60;;;0.70;;
22205;SDS011;11272;50.104;8.754;2023-05-10T03:44:20;1.67;;;0.80;;
22205;SDS011;11272;50.104;8.754;2023-05-10T03:46:45;2.20;;;0.60;;
22205;SDS011;11272;50.104;8.754;2023-05-10T03:49:11;0.70;;;0.63;;
22205;SDS011;11272;50.104;8.754;2023-05-10T03:51:40;1.20;;;0.80;;
22205;SDS011;11272;50.104;8.754;2023-05-10T03:54:08;1.37;;;0.80;;
22205;SDS011;11272;50.104;8.754;2023-05-10T03:56:36;1.27;;;0.90;;
22205;SDS011;11272;50.104;8.754;2023-05-10T03:59:01;0.70;;;0.70;;
22205;SDS011;11272;50.104;8.754;2023-05-10T04:01:35;0.97;;;0.70;;
22205;SDS011;11272;50.104;8.754;2023-05-10T04:04:01;1.03;;;0.70;;
22205;SDS011;11272;50.104;8.754;2023-05-10T04:06:30;1.00;;;0.80;;
22205;SDS011;11272;50.104;8.754;2023-05-10T04:08:58;0.80;;;0.60;;
22205;SDS011;11272;50.104;8.754;2023-05-10T04:11:29;1.30;;;0.93;;
22205;SDS011;11272;50.104;8.754;2023-05-10T04:13:59;2.47;;;0.87;;
22205;SDS011;11272;50.104;8.754;2023-05-10T04:19:15;4.80;;;0.80;;
22205;SDS011;11272;50.104;8.754;2023-05-10T04:21:41;1.70;;;0.90;;
22205;SDS011;11272;50.104;8.754;2023-05-10T04:26:55;0.90;;;0.60;;
22205;SDS011;11272;50.104;8.754;2023-05-10T04:29:21;1.23;;;0.90;;
22205;SDS011;11272;50.104;8.754;2023-05-10T04:31:49;1.07;;;0.80;;
22205;SDS011;11272;50.104;8.754;2023-05-10T04:51:45;1.10;;;0.90;;
22205;SDS011;11272;50.104;8.754;2023-05-10T04:57:06;1.97;;;1.20;;
22205;SDS011;11272;50.104;8.754;2023-05-10T05:05:29;1.77;;;0.97;;
22205;SDS011;11272;50.104;8.754;2023-05-10T05:22:02;1.47;;;1.10;;
22205;SDS011;11272;50.104;8.754;2023-05-10T05:58:52;2.57;;;1.30;;
22205;SDS011;11272;50.104;8.754;2023-05-10T06:04:22;2.27;;;1.60;;
22205;SDS011;11272;50.104;8.754;2023-05-10T06:06:48;6.50;;;2.27;;
22205;SDS011;11272;50.104;8.754;2023-05-10T06:09:13;3.40;;;2.00;;
22205;SDS011;11272;50.104;8.754;2023-05-10T06:11:39;2.73;;;1.93;;
22205;SDS011;11272;50.104;8.754;2023-05-10T06:14:05;4.10;;;2.40;;
22205;SDS011;11272;50.104;8.754;2023-05-10T06:16:32;2.53;;;1.77;;
22205;SDS011;11272;50.104;8.754;2023-05-10T06:19:00;3.53;;;1.90;;
22205;SDS011;11272;50.104;8.754;2023-05-10T06:21:26;2.27;;;1.90;;
22205;SDS011;11272;50.104;8.754;2023-05-10T06:23:52;4.87;;;2.40;;
22205;SDS011;11272;50.104;8.754;2023-05-10T06:26:17;3.07;;;2.10;;
22205;SDS011;11272;50.104;8.754;2023-05-10T06:28:43;2.77;;;1.90;;
22205;SDS011;11272;50.104;8.754;2023-05-10T06:31:11;3.23;;;2.17;;
22205;SDS011;11272;50.104;8.754;2023-05-10T06:33:39;2.97;;;2.07;;
22205;SDS011;11272;50.104;8.754;2023-05-10T06:36:05;2.20;;;1.97;;
22205;SDS011;11272;50.104;8.754;2023-05-10T06:38:31;3.87;;;2.10;;
22205;SDS011;11272;50.104;8.754;2023-05-10T06:40:56;3.07;;;1.90;;
22205;SDS011;11272;50.104;8.754;2023-05-10T06:43:22;5.53;;;1.70;;
22205;SDS011;11272;50.104;8.754;2023-05-10T06:45:50;2.80;;;1.87;;
22205;SDS011;11272;50.104;8.754;2023-05-10T06:48:19;3.03;;;1.97;;
22205;SDS011;11272;50.104;8.754;2023-05-10T06:50:44;2.57;;;1.80;;
22205;SDS011;11272;50.104;8.754;2023-05-10T06:53:10;4.27;;;2.30;;
22205;SDS011;11272;50.104;8.754;2023-05-10T06:55:36;2.77;;;1.90;;
22205;SDS011;11272;50.104;8.754;2023-05-10T06:58:02;3.00;;;1.83;;
22205;SDS011;11272;50.104;8.754;2023-05-10T07:00:28;1.90;;;1.70;;
22205;SDS011;11272;50.104;8.754;2023-05-10T07:02:56;3.70;;;1.80;;
22205;SDS011;11272;50.104;8.754;2023-05-10T07:05:24;2.70;;;1.60;;
22205;SDS011;11272;50.104;8.754;2023-05-10T07:07:50;1.90;;;1.63;;
22205;SDS011;11272;50.104;8.754;2023-05-10T07:10:16;2.03;;;1.50;;
22205;SDS011;11272;50.104;8.754;2023-05-10T07:12:43;2.77;;;1.80;;
22205;SDS011;11272;50.104;8.754;2023-05-10T07:15:09;2.83;;;1.43;;
22205;SDS011;11272;50.104;8.754;2023-05-10T07:17:42;3.33;;;1.60;;
22205;SDS011;11272;50.104;8.754;2023-05-10T07:20:09;2.03;;;1.63;;
22205;SDS011;11272;50.104;8.754;2023-05-10T07:22:38;1.73;;;1.50;;
22205;SDS011;11272;50.104;8.754;2023-05-10T07:25:06;5.43;;;1.80;;
22205;SDS011;11272;50.104;8.754;2023-05-10T07:27:31;4.10;;;1.33;;
22205;SDS011;11272;50.104;8.754;2023-05-10T07:29:57;2.23;;;1.60;;
22205;SDS011;11272;50.104;8.754;2023-05-10T07:32:23;3.10;;;1.67;;
22205;SDS011;11272;50.104;8.754;2023-05-10T07:34:51;1.60;;;1.50;;
22205;SDS011;11272;50.104;8.754;2023-05-10T07:37:17;4.50;;;1.50;;
22205;SDS011;11272;50.104;8.754;2023-05-10T07:39:47;1.43;;;1.30;;
22205;SDS011;11272;50.104;8.754;2023-05-10T07:42:13;1.67;;;1.50;;
22205;SDS011;11272;50.104;8.754;2023-05-10T07:44:39;4.10;;;1.40;;
22205;SDS011;11272;50.104;8.754;2023-05-10T07:47:06;2.87;;;1.63;;
22205;SDS011;11272;50.104;8.754;2023-05-10T07:49:34;3.17;;;1.20;;
22205;SDS011;11272;50.104;8.754;2023-05-10T07:52:05;2.27;;;1.43;;
22205;SDS011;11272;50.104;8.754;2023-05-10T07:54:31;1.53;;;1.43;;
22205;SDS011;11272;50.104;8.754;2023-05-10T07:56:57;2.17;;;1.47;;
22205;SDS011;11272;50.104;8.754;2023-05-10T07:59:24;2.03;;;1.43;;
22205;SDS011;11272;50.104;8.754;2023-05-10T08:01:49;2.57;;;1.70;;
22205;SDS011;11272;50.104;8.754;2023-05-10T08:04:15;2.63;;;1.50;;
22205;SDS011;11272;50.104;8.754;2023-05-10T08:06:43;3.03;;;1.23;;
22205;SDS011;11272;50.104;8.754;2023-05-10T08:09:13;1.90;;;1.30;;
22205;SDS011;11272;50.104;8.754;2023-05-10T08:11:40;3.70;;;1.50;;
22205;SDS011;11272;50.104;8.754;2023-05-10T08:14:06;3.30;;;1.40;;
22205;SDS011;11272;50.104;8.754;2023-05-10T08:16:32;1.57;;;1.20;;
22205;SDS011;11272;50.104;8.754;2023-05-10T08:18:58;2.70;;;1.40;;
22205;SDS011;11272;50.104;8.754;2023-05-10T08:21:23;2.10;;;1.53;;
22205;SDS011;11272;50.104;8.754;2023-05-10T08:23:51;3.60;;;1.13;;
22205;SDS011;11272;50.104;8.754;2023-05-10T08:26:17;2.30;;;1.20;;
22205;SDS011;11272;50.104;8.754;2023-05-10T08:28:42;2.00;;;1.30;;
22205;SDS011;11272;50.104;8.754;2023-05-10T08:31:13;1.33;;;1.10;;
22205;SDS011;11272;50.104;8.754;2023-05-10T08:33:38;1.50;;;1.30;;
22205;SDS011;11272;50.104;8.754;2023-05-10T08:36:04;1.63;;;1.20;;
22205;SDS011;11272;50.104;8.754;2023-05-10T08:38:30;1.83;;;1.20;;
22205;SDS011;11272;50.104;8.754;2023-05-10T08:40:58;1.00;;;0.90;;
22205;SDS011;11272;50.104;8.754;2023-05-10T08:43:26;2.50;;;1.33;;
22205;SDS011;11272;50.104;8.754;2023-05-10T08:45:59;2.47;;;1.20;;
22205;SDS011;11272;50.104;8.754;2023-05-10T08:48:26;3.30;;;1.37;;
22205;SDS011;11272;50.104;8.754;2023-05-10T08:51:01;1.30;;;1.20;;
22205;SDS011;11272;50.104;8.754;2023-05-10T08:53:33;1.30;;;1.13;;
22205;SDS011;11272;50.104;8.754;2023-05-10T08:56:02;2.53;;;1.40;;
22205;SDS011;11272;50.104;8.754;2023-05-10T08:58:28;3.60;;;1.20;;
22205;SDS011;11272;50.104;8.754;2023-05-10T09:03:43;2.50;;;1.17;;
22205;SDS011;11272;50.104;8.754;2023-05-10T09:09:13;1.43;;;1.00;;
22205;SDS011;11272;50.104;8.754;2023-05-10T09:22:43;1.20;;;1.10;;
22205;SDS011;11272;50.104;8.754;2023-05-10T09:25:11;2.17;;;1.10;;
22205;SDS011;11272;50.104;8.754;2023-05-10T09:27:46;3.33;;;1.37;;
22205;SDS011;11272;50.104;8.754;2023-05-10T09:30:23;2.17;;;1.37;;
22205;SDS011;11272;50.104;8.754;2023-05-10T09:32:53;3.03;;;1.30;;
22205;SDS011;11272;50.104;8.754;2023-05-10T09:38:15;1.83;;;1.17;;
22205;SDS011;11272;50.104;8.754;2023-05-10T09:46:08;1.80;;;1.20;;
22205;SDS011;11272;50.104;8.754;2023-05-10T09:48:37;2.33;;;1.20;;
22205;SDS011;11272;50.104;8.754;2023-05-10T09:51:20;1.33;;;1.10;;
22205;SDS011;11272;50.104;8.754;2023-05-10T09:53:46;1.30;;;1.20;;
22205;SDS011;11272;50.104;8.754;2023-05-10T09:56:12;1.47;;;1.10;;
22205;SDS011;11272;50.104;8.754;2023-05-10T09:58:40;2.73;;;1.50;;
22205;SDS011;11272;50.104;8.754;2023-05-10T10:01:10;2.63;;;1.00;;
22205;SDS011;11272;50.104;8.754;2023-05-10T10:03:42;4.60;;;1.47;;
22205;SDS011;11272;50.104;8.754;2023-05-10T10:06:11;1.87;;;1.30;;
22205;SDS011;11272;50.104;8.754;2023-05-10T10:08:45;6.90;;;1.50;;
22205;SDS011;11272;50.104;8.754;2023-05-10T10:11:16;1.20;;;1.10;;
22205;SDS011;11272;50.104;8.754;2023-05-10T10:16:37;2.07;;;1.30;;
22205;SDS011;11272;50.104;8.754;2023-05-10T10:24:41;2.93;;;1.20;;
22205;SDS011;11272;50.104;8.754;2023-05-10T10:52:31;2.43;;;1.63;;
22205;SDS011;11272;50.104;8.754;2023-05-10T10:55:03;1.83;;;1.20;;
22205;SDS011;11272;50.104;8.754;2023-05-10T10:57:56;1.27;;;1.00;;
22205;SDS011;11272;50.104;8.754;2023-05-10T11:15:01;1.20;;;1.10;;
22205;SDS011;11272;50.104;8.754;2023-05-10T11:20:21;1.53;;;0.80;;
22205;SDS011;11272;50.104;8.754;2023-05-10T11:22:50;0.77;;;0.77;;
22205;SDS011;11272;50.104;8.754;2023-05-10T11:28:12;2.00;;;1.20;;
22205;SDS011;11272;50.104;8.754;2023-05-10T11:30:40;1.33;;;0.90;;
22205;SDS011;11272;50.104;8.754;2023-05-10T11:33:07;0.97;;;0.97;;
22205;SDS011;11272;50.104;8.754;2023-05-10T11:35:37;1.33;;;0.80;;
22205;SDS011;11272;50.104;8.754;2023-05-10T11:38:10;1.20;;;1.10;;
22205;SDS011;11272;50.104;8.754;2023-05-10T11:40:37;0.83;;;0.80;;
22205;SDS011;11272;50.104;8.754;2023-05-10T11:43:03;1.43;;;0.90;;
22205;SDS011;11272;50.104;8.754;2023-05-10T11:45:36;0.90;;;0.80;;
22205;SDS011;11272;50.104;8.754;2023-05-10T11:48:12;1.50;;;0.93;;
22205;SDS011;11272;50.104;8.754;2023-05-10T11:50:39;0.70;;;0.70;;
22205;SDS011;11272;50.104;8.754;2023-05-10T11:53:05;1.23;;;0.97;;
22205;SDS011;11272;50.104;8.754;2023-05-10T11:55:33;1.20;;;0.97;;
22205;SDS011;11272;50.104;8.754;2023-05-10T11:57:59;1.53;;;0.93;;
22205;SDS011;11272;50.104;8.754;2023-05-10T12:00:28;0.87;;;0.83;;
22205;SDS011;11272;50.104;8.754;2023-05-10T12:02:54;1.10;;;1.00;;
22205;SDS011;11272;50.104;8.754;2023-05-10T12:05:20;0.90;;;0.90;;
22205;SDS011;11272;50.104;8.754;2023-05-10T12:07:49;0.93;;;0.73;;
22205;SDS011;11272;50.104;8.754;2023-05-10T12:10:14;1.20;;;0.90;;
22205;SDS011;11272;50.104;8.754;2023-05-10T12:12:44;1.03;;;0.90;;
22205;SDS011;11272;50.104;8.754;2023-05-10T12:17:43;1.13;;;1.00;;
22205;SDS011;11272;50.104;8.754;2023-05-10T12:20:16;1.47;;;1.10;;
22205;SDS011;11272;50.104;8.754;2023-05-10T12:22:57;1.60;;;1.20;;
22205;SDS011;11272;50.104;8.754;2023-05-10T12:25:33;1.53;;;1.00;;
22205;SDS011;11272;50.104;8.754;2023-05-10T12:28:00;3.47;;;1.13;;
22205;SDS011;11272;50.104;8.754;2023-05-10T12:30:32;1.33;;;0.90;;
22205;SDS011;11272;50.104;8.754;2023-05-10T12:33:02;3.17;;;0.87;;
22205;SDS011;11272;50.104;8.754;2023-05-10T12:35:33;1.00;;;0.90;;
22205;SDS011;11272;50.104;8.754;2023-05-10T12:38:34;1.67;;;1.30;;
22205;SDS011;11272;50.104;8.754;2023-05-10T12:41:04;1.17;;;0.60;;
22205;SDS011;11272;50.104;8.754;2023-05-10T12:43:31;0.60;;;0.60;;
22205;SDS011;11272;50.104;8.754;2023-05-10T12:45:58;0.90;;;0.50;;
22205;SDS011;11272;50.104;8.754;2023-05-10T12:48:29;1.10;;;0.70;;
22205;SDS011;11272;50.104;8.754;2023-05-10T12:50:56;0.50;;;0.50;;
22205;SDS011;11272;50.104;8.754;2023-05-10T12:53:23;0.60;;;0.60;;
22205;SDS011;11272;50.104;8.754;2023-05-10T12:55:51;0.73;;;0.73;;
22205;SDS011;11272;50.104;8.754;2023-05-10T12:58:22;0.60;;;0.60;;
22205;SDS011;11272;50.104;8.754;2023-05-10T13:00:50;0.40;;;0.40;;
22205;SDS011;11272;50.104;8.754;2023-05-10T13:03:17;3.97;;;0.90;;
22205;SDS011;11272;50.104;8.754;2023-05-10T13:05:45;0.57;;;0.57;;
22205;SDS011;11272;50.104;8.754;2023-05-10T13:08:11;1.23;;;0.50;;
22205;SDS011;11272;50.104;8.754;2023-05-10T13:10:38;1.63;;;0.60;;
22205;SDS011;11272;50.104;8.754;2023-05-10T13:13:04;0.47;;;0.47;;
22205;SDS011;11272;50.104;8.754;2023-05-10T13:15:33;1.67;;;0.50;;
22205;SDS011;11272;50.104;8.754;2023-05-10T13:18:00;0.63;;;0.60;;
22205;SDS011;11272;50.104;8.754;2023-05-10T13:20:26;2.57;;;0.60;;
22205;SDS011;11272;50.104;8.754;2023-05-10T13:22:52;2.30;;;0.60;;
22205;SDS011;11272;50.104;8.754;2023-05-10T13:25:18;0.80;;;0.60;;
22205;SDS011;11272;50.104;8.754;2023-05-10T13:27:46;0.60;;;0.60;;
22205;SDS011;11272;50.104;8.754;2023-05-10T13:30:11;0.93;;;0.70;;
22205;SDS011;11272;50.104;8.754;2023-05-10T13:32:40;1.37;;;0.60;;
22205;SDS011;11272;50.104;8.754;2023-05-10T13:35:08;1.23;;;0.67;;
22205;SDS011;11272;50.104;8.754;2023-05-10T13:37:38;2.13;;;0.50;;
22205;SDS011;11272;50.104;8.754;2023-05-10T13:40:04;0.77;;;0.60;;
22205;SDS011;11272;50.104;8.754;2023-05-10T13:42:32;0.60;;;0.60;;
22205;SDS011;11272;50.104;8.754;2023-05-10T13:44:59;0.60;;;0.60;;
22205;SDS011;11272;50.104;8.754;2023-05-10T13:47:27;1.17;;;0.67;;
22205;SDS011;11272;50.104;8.754;2023-05-10T13:49:58;2.27;;;0.40;;
22205;SDS011;11272;50.104;8.754;2023-05-10T13:52:23;0.50;;;0.50;;
22205;SDS011;11272;50.104;8.754;2023-05-10T13:54:49;0.70;;;0.70;;
22205;SDS011;11272;50.104;8.754;2023-05-10T13:57:14;0.50;;;0.50;;
22205;SDS011;11272;50.104;8.754;2023-05-10T13:59:41;2.10;;;0.90;;
22205;SDS011;11272;50.104;8.754;2023-05-10T14:02:07;1.57;;;0.60;;
22205;SDS011;11272;50.104;8.754;2023-05-10T14:04:32;1.27;;;0.50;;
22205;SDS011;11272;50.104;8.754;2023-05-10T14:07:00;0.97;;;0.73;;
22205;SDS011;11272;50.104;8.754;2023-05-10T14:09:26;0.90;;;0.70;;
22205;SDS011;11272;50.104;8.754;2023-05-10T14:11:51;2.03;;;0.60;;
22205;SDS011;11272;50.104;8.754;2023-05-10T14:14:20;0.83;;;0.60;;
22205;SDS011;11272;50.104;8.754;2023-05-10T14:16:46;1.40;;;0.60;;
22205;SDS011;11272;50.104;8.754;2023-05-10T14:19:12;0.80;;;0.80;;
22205;SDS011;11272;50.104;8.754;2023-05-10T14:21:37;2.93;;;0.50;;
22205;SDS011;11272;50.104;8.754;2023-05-10T14:24:03;1.10;;;0.60;;
22205;SDS011;11272;50.104;8.754;2023-05-10T14:26:29;0.67;;;0.40;;
22205;SDS011;11272;50.104;8.754;2023-05-10T14:28:55;0.30;;;0.30;;
22205;SDS011;11272;50.104;8.754;2023-05-10T14:31:23;0.73;;;0.67;;
22205;SDS011;11272;50.104;8.754;2023-05-10T14:33:50;1.03;;;0.60;;
22205;SDS011;11272;50.104;8.754;2023-05-10T14:36:16;4.23;;;0.53;;
22205;SDS011;11272;50.104;8.754;2023-05-10T14:38:42;0.63;;;0.40;;
22205;SDS011;11272;50.104;8.754;2023-05-10T14:41:08;1.10;;;0.73;;
22205;SDS011;11272;50.104;8.754;2023-05-10T14:43:35;0.50;;;0.40;;
22205;SDS011;11272;50.104;8.754;2023-05-10T14:46:01;1.90;;;0.70;;
22205;SDS011;11272;50.104;8.754;2023-05-10T14:48:29;1.23;;;0.50;;
22205;SDS011;11272;50.104;8.754;2023-05-10T14:50:58;1.47;;;0.80;;
22205;SDS011;11272;50.104;8.754;2023-05-10T14:53:24;1.80;;;0.57;;
22205;SDS011;11272;50.104;8.754;2023-05-10T14:55:49;0.57;;;0.57;;
22205;SDS011;11272;50.104;8.754;2023-05-10T14:58:20;2.20;;;0.50;;
22205;SDS011;11272;50.104;8.754;2023-05-10T15:00:47;0.57;;;0.50;;
22205;SDS011;11272;50.104;8.754;2023-05-10T15:03:13;1.27;;;0.60;;
22205;SDS011;11272;50.104;8.754;2023-05-10T15:05:39;0.57;;;0.57;;
22205;SDS011;11272;50.104;8.754;2023-05-10T15:08:05;1.83;;;0.50;;
22205;SDS011;11272;50.104;8.754;2023-05-10T15:10:35;0.50;;;0.50;;
22205;SDS011;11272;50.104;8.754;2023-05-10T15:13:03;1.43;;;0.67;;
22205;SDS011;11272;50.104;8.754;2023-05-10T15:15:29;0.80;;;0.60;;
22205;SDS011;11272;50.104;8.754;2023-05-10T15:17:54;0.53;;;0.53;;
22205;SDS011;11272;50.104;8.754;2023-05-10T15:20:20;1.00;;;0.80;;
22205;SDS011;11272;50.104;8.754;2023-05-10T15:22:46;0.90;;;0.67;;
22205;SDS011;11272;50.104;8.754;2023-05-10T15:25:11;1.90;;;0.63;;
22205;SDS011;11272;50.104;8.754;2023-05-10T15:27:38;0.97;;;0.60;;
22205;SDS011;11272;50.104;8.754;2023-05-10T15:30:05;2.30;;;0.80;;
22205;SDS011;11272;50.104;8.754;2023-05-10T15:32:31;1.90;;;0.70;;
22205;SDS011;11272;50.104;8.754;2023-05-10T15:34:59;1.97;;;1.20;;
22205;SDS011;11272;50.104;8.754;2023-05-10T15:37:25;0.80;;;0.60;;
22205;SDS011;11272;50.104;8.754;2023-05-10T15:39:57;1.80;;;1.70;;
22205;SDS011;11272;50.104;8.754;2023-05-10T15:42:32;2.47;;;0.70;;
22205;SDS011;11272;50.104;8.754;2023-05-10T15:44:58;0.70;;;0.70;;
22205;SDS011;11272;50.104;8.754;2023-05-10T15:47:24;1.70;;;0.70;;
22205;SDS011;11272;50.104;8.754;2023-05-10T15:49:50;1.03;;;0.73;;
22205;SDS011;11272;50.104;8.754;2023-05-10T15:52:19;0.80;;;0.67;;
22205;SDS011;11272;50.104;8.754;2023-05-10T15:54:48;0.80;;;0.50;;
22205;SDS011;11272;50.104;8.754;2023-05-10T15:57:14;0.70;;;0.70;;
22205;SDS011;11272;50.104;8.754;2023-05-10T15:59:42;1.23;;;0.57;;
22205;SDS011;11272;50.104;8.754;2023-05-10T16:02:08;1.50;;;0.50;;
22205;SDS011;11272;50.104;8.754;2023-05-10T16:04:35;1.30;;;0.50;;
22205;SDS011;11272;50.104;8.754;2023-05-10T16:07:04;1.10;;;0.50;;
22205;SDS011;11272;50.104;8.754;2023-05-10T16:09:32;1.43;;;0.77;;
22205;SDS011;11272;50.104;8.754;2023-05-10T16:12:00;0.73;;;0.60;;
22205;SDS011;11272;50.104;8.754;2023-05-10T16:14:30;2.43;;;0.70;;
22205;SDS011;11272;50.104;8.754;2023-05-10T16:16:56;1.20;;;0.40;;
22205;SDS011;11272;50.104;8.754;2023-05-10T16:19:29;0.70;;;0.60;;
22205;SDS011;11272;50.104;8.754;2023-05-10T16:21:57;2.73;;;0.80;;
22205;SDS011;11272;50.104;8.754;2023-05-10T16:24:24;0.93;;;0.80;;
22205;SDS011;11272;50.104;8.754;2023-05-10T16:26:55;0.70;;;0.60;;
22205;SDS011;11272;50.104;8.754;2023-05-10T16:29:20;2.73;;;0.70;;
22205;SDS011;11272;50.104;8.754;2023-05-10T16:31:46;3.33;;;0.70;;
22205;SDS011;11272;50.104;8.754;2023-05-10T16:34:12;0.70;;;0.70;;
22205;SDS011;11272;50.104;8.754;2023-05-10T16:36:38;1.10;;;0.60;;
22205;SDS011;11272;50.104;8.754;2023-05-10T16:39:04;1.07;;;0.60;;
22205;SDS011;11272;50.104;8.754;2023-05-10T16:41:33;0.60;;;0.60;;
22205;SDS011;11272;50.104;8.754;2023-05-10T16:44:01;1.73;;;0.53;;
22205;SDS011;11272;50.104;8.754;2023-05-10T16:46:30;4.80;;;0.97;;
22205;SDS011;11272;50.104;8.754;2023-05-10T16:48:59;0.70;;;0.70;;
22205;SDS011;11272;50.104;8.754;2023-05-10T16:51:25;1.00;;;0.70;;
22205;SDS011;11272;50.104;8.754;2023-05-10T16:53:52;2.07;;;0.77;;
22205;SDS011;11272;50.104;8.754;2023-05-10T16:56:17;1.57;;;0.77;;
22205;SDS011;11272;50.104;8.754;2023-05-10T16:58:46;2.00;;;0.63;;
22205;SDS011;11272;50.104;8.754;2023-05-10T17:01:14;2.30;;;0.70;;
22205;SDS011;11272;50.104;8.754;2023-05-10T17:03:42;1.77;;;0.60;;
22205;SDS011;11272;50.104;8.754;2023-05-10T17:06:10;0.87;;;0.63;;
22205;SDS011;11272;50.104;8.754;2023-05-10T17:08:36;1.00;;;0.67;;
22205;SDS011;11272;50.104;8.754;2023-05-10T17:11:06;1.80;;;0.83;;
22205;SDS011;11272;50.104;8.754;2023-05-10T17:13:32;1.30;;;1.00;;
22205;SDS011;11272;50.104;8.754;2023-05-10T17:15:59;0.67;;;0.67;;
22205;SDS011;11272;50.104;8.754;2023-05-10T17:18:27;1.73;;;0.87;;
22205;SDS011;11272;50.104;8.754;2023-05-10T17:20:55;1.50;;;0.90;;
22205;SDS011;11272;50.104;8.754;2023-05-10T17:23:23;0.97;;;0.73;;
22205;SDS011;11272;50.104;8.754;2023-05-10T17:25:53;1.00;;;0.90;;
22205;SDS011;11272;50.104;8.754;2023-05-10T17:28:18;1.90;;;0.90;;
22205;SDS011;11272;50.104;8.754;2023-05-10T17:30:44;1.40;;;0.80;;
22205;SDS011;11272;50.104;8.754;2023-05-10T17:33:10;1.40;;;0.80;;
22205;SDS011;11272;50.104;8.754;2023-05-10T17:35:37;0.80;;;0.67;;
22205;SDS011;11272;50.104;8.754;2023-05-10T17:38:03;0.80;;;0.70;;
22205;SDS011;11272;50.104;8.754;2023-05-10T17:40:29;1.60;;;0.90;;
22205;SDS011;11272;50.104;8.754;2023-05-10T17:42:54;1.43;;;0.80;;
22205;SDS011;11272;50.104;8.754;2023-05-10T17:45:20;1.10;;;0.70;;
22205;SDS011;11272;50.104;8.754;2023-05-10T17:47:46;2.10;;;0.60;;
22205;SDS011;11272;50.104;8.754;2023-05-10T17:50:11;1.33;;;0.80;;
22205;SDS011;11272;50.104;8.754;2023-05-10T17:52:37;1.07;;;0.77;;
22205;SDS011;11272;50.104;8.754;2023-05-10T17:55:03;2.80;;;0.70;;
22205;SDS011;11272;50.104;8.754;2023-05-10T17:57:29;0.60;;;0.60;;
22205;SDS011;11272;50.104;8.754;2023-05-10T17:59:55;1.00;;;0.60;;
22205;SDS011;11272;50.104;8.754;2023-05-10T18:02:21;0.73;;;0.60;;